createdAt,value
2022-10-19T00:01:04.184Z,0.33
2022-10-19T00:03:32.413Z,0.20
2022-10-19T00:06:00.809Z,0.30
2022-10-19T00:08:28.890Z,0.30
2022-10-19T00:10:56.696Z,0.20
2022-10-19T00:13:24.619Z,0.43
2022-10-19T00:15:52.514Z,0.27
2022-10-19T00:18:21.872Z,0.37
2022-10-19T00:20:49.781Z,0.30
2022-10-19T00:23:17.798Z,0.30
2022-10-19T00:25:56.148Z,0.40
2022-10-19T00:28:24.142Z,0.40
2022-10-19T00:30:52.131Z,0.40
2022-10-19T00:33:22.635Z,0.40
2022-10-19T00:35:52.122Z,0.30
2022-10-19T00:38:21.272Z,0.40
2022-10-19T00:40:50.267Z,0.20
2022-10-19T00:43:20.453Z,0.30
2022-10-19T00:45:48.608Z,0.30
2022-10-19T00:48:20.108Z,0.30
2022-10-19T00:50:51.394Z,0.33
2022-10-19T00:53:19.486Z,0.30
2022-10-19T00:55:47.950Z,0.23
2022-10-19T00:58:16.353Z,0.30
2022-10-19T01:00:44.470Z,0.30
2022-10-19T01:03:13.525Z,0.50
2022-10-19T01:05:42.452Z,0.40
2022-10-19T01:08:12.788Z,0.40
2022-10-19T01:10:47.928Z,0.27
2022-10-19T01:13:26.989Z,0.20
2022-10-19T01:16:03.025Z,0.30
2022-10-19T01:18:39.321Z,0.30
2022-10-19T01:21:22.669Z,0.40
2022-10-19T01:24:37.014Z,0.60
2022-10-19T01:27:34.242Z,0.40
2022-10-19T01:30:08.601Z,0.40
2022-10-19T01:32:46.648Z,0.40
2022-10-19T01:35:24.625Z,0.43
2022-10-19T01:38:03.657Z,0.50
2022-10-19T01:40:37.926Z,0.50
2022-10-19T01:43:13.234Z,0.50
2022-10-19T01:45:48.616Z,0.33
2022-10-19T01:48:22.681Z,0.50
2022-10-19T01:50:55.205Z,0.53
2022-10-19T01:53:25.578Z,0.40
2022-10-19T01:55:56.538Z,0.40
2022-10-19T01:58:29.397Z,0.50
2022-10-19T02:01:02.696Z,0.30
2022-10-19T02:03:30.850Z,0.50
2022-10-19T02:06:00.616Z,0.60
2022-10-19T02:08:32.819Z,0.57
2022-10-19T02:11:02.688Z,0.60
2022-10-19T02:13:31.749Z,0.60
2022-10-19T02:16:04.820Z,0.50
2022-10-19T02:18:37.617Z,0.50
2022-10-19T02:21:07.272Z,0.60
2022-10-19T02:23:35.500Z,0.27
2022-10-19T02:26:04.071Z,0.50
2022-10-19T02:28:32.951Z,0.50
2022-10-19T02:31:02.483Z,0.57
2022-10-19T02:33:30.956Z,0.30
2022-10-19T02:35:59.938Z,0.50
2022-10-19T02:38:28.364Z,0.77
2022-10-19T02:41:05.601Z,0.40
2022-10-19T02:43:35.879Z,0.50
2022-10-19T02:46:09.464Z,0.63
2022-10-19T02:48:40.130Z,0.50
2022-10-19T02:51:07.955Z,0.40
2022-10-19T02:53:35.980Z,0.40
2022-10-19T02:56:03.969Z,0.37
2022-10-19T02:58:31.787Z,0.40
2022-10-19T03:00:59.823Z,0.30
2022-10-19T03:03:29.114Z,0.30
2022-10-19T03:05:56.927Z,0.37
2022-10-19T03:08:24.916Z,0.30
2022-10-19T03:10:52.912Z,0.23
2022-10-19T03:13:20.740Z,0.50
2022-10-19T03:15:48.874Z,0.30
2022-10-19T03:18:16.814Z,0.40
2022-10-19T03:20:46.095Z,0.30
2022-10-19T03:23:14.075Z,0.20
2022-10-19T03:25:41.998Z,0.40
2022-10-19T03:28:09.848Z,0.40
2022-10-19T03:30:37.853Z,0.40
2022-10-19T03:33:05.846Z,0.30
2022-10-19T03:35:33.667Z,0.40
2022-10-19T03:38:02.914Z,0.40
2022-10-19T03:40:30.791Z,0.43
2022-10-19T03:42:58.601Z,0.30
2022-10-19T03:45:26.524Z,0.43
2022-10-19T03:47:54.447Z,0.43
2022-10-19T03:50:22.308Z,0.30
2022-10-19T03:52:50.675Z,0.27
2022-10-19T03:55:20.048Z,0.30
2022-10-19T03:57:47.886Z,0.50
2022-10-19T04:00:16.616Z,0.20
2022-10-19T04:02:44.614Z,0.30
2022-10-19T04:05:12.492Z,0.30
2022-10-19T04:07:40.415Z,0.30
2022-10-19T04:10:09.056Z,0.40
2022-10-19T04:12:38.253Z,0.23
2022-10-19T04:15:06.887Z,0.50
2022-10-19T04:17:35.108Z,0.37
2022-10-19T04:20:03.133Z,0.30
2022-10-19T04:22:31.060Z,0.20
2022-10-19T04:24:59.077Z,0.30
2022-10-19T04:27:26.858Z,0.40
2022-10-19T04:29:56.109Z,0.30
2022-10-19T04:32:24.059Z,0.47
2022-10-19T04:34:51.939Z,0.40
2022-10-19T04:37:19.951Z,0.57
2022-10-19T04:39:47.824Z,0.30
2022-10-19T04:42:15.615Z,0.30
2022-10-19T04:44:43.625Z,0.43
2022-10-19T04:47:12.938Z,0.67
2022-10-19T04:49:40.744Z,0.37
2022-10-19T04:52:08.644Z,0.33
2022-10-19T04:54:36.581Z,0.37
2022-10-19T04:57:05.207Z,0.40
2022-10-19T04:59:33.297Z,0.40
2022-10-19T05:02:01.235Z,0.40
2022-10-19T05:04:30.622Z,0.27
2022-10-19T05:06:58.554Z,0.30
2022-10-19T05:09:26.676Z,0.30
2022-10-19T05:11:54.626Z,0.37
2022-10-19T05:14:22.918Z,0.50
2022-10-19T05:16:50.731Z,0.37
2022-10-19T05:19:18.961Z,0.40
2022-10-19T05:21:48.277Z,0.60
2022-10-19T05:24:16.138Z,0.50
2022-10-19T05:26:44.100Z,0.40
2022-10-19T05:29:14.692Z,0.50
2022-10-19T05:31:42.647Z,0.73
2022-10-19T05:34:10.789Z,0.40
2022-10-19T05:36:40.262Z,0.70
2022-10-19T05:39:14.578Z,0.40
2022-10-19T05:41:44.550Z,0.40
2022-10-19T05:44:16.181Z,0.37
2022-10-19T05:46:44.602Z,0.50
2022-10-19T05:49:12.887Z,0.57
2022-10-19T05:51:40.953Z,0.60
2022-10-19T05:54:11.268Z,0.40
2022-10-19T05:56:39.862Z,0.60
2022-10-19T05:59:09.397Z,0.57
2022-10-19T06:01:38.106Z,0.70
2022-10-19T06:04:07.602Z,0.50
2022-10-19T06:06:35.804Z,0.57
2022-10-19T06:09:04.688Z,0.40
2022-10-19T06:11:36.514Z,0.50
2022-10-19T06:14:07.312Z,0.60
2022-10-19T06:16:36.021Z,0.97
2022-10-19T06:19:05.111Z,0.60
2022-10-19T06:21:34.799Z,0.33
2022-10-19T06:24:05.910Z,0.50
2022-10-19T06:26:36.344Z,0.40
2022-10-19T06:29:05.365Z,0.50
2022-10-19T06:31:35.028Z,0.30
2022-10-19T06:34:03.685Z,0.60
2022-10-19T06:36:32.772Z,0.53
2022-10-19T06:39:01.987Z,0.50
2022-10-19T06:41:30.317Z,0.40
2022-10-19T06:43:59.633Z,0.57
2022-10-19T06:46:28.569Z,0.30
2022-10-19T06:48:58.216Z,0.73
2022-10-19T06:51:27.779Z,0.35
2022-10-19T06:53:57.071Z,0.50
2022-10-19T06:56:26.771Z,0.50
2022-10-19T06:58:55.296Z,0.70
2022-10-19T07:01:25.336Z,0.65
2022-10-19T07:03:53.947Z,0.60
2022-10-19T07:06:22.477Z,0.40
2022-10-19T07:08:50.539Z,0.65
2022-10-19T07:11:22.589Z,0.35
2022-10-19T07:13:51.026Z,0.60
2022-10-19T07:16:21.034Z,0.40
2022-10-19T07:18:52.186Z,0.30
2022-10-19T07:21:21.929Z,0.47
2022-10-19T07:23:49.870Z,0.50
2022-10-19T07:26:21.362Z,0.45
2022-10-19T07:28:50.018Z,0.47
2022-10-19T07:31:20.338Z,0.50
2022-10-19T07:33:48.529Z,0.73
2022-10-19T07:36:18.019Z,0.30
2022-10-19T07:38:45.862Z,0.47
2022-10-19T07:41:16.325Z,0.30
2022-10-19T07:43:46.433Z,0.40
2022-10-19T07:46:16.241Z,0.35
2022-10-19T07:48:45.361Z,0.50
2022-10-19T07:51:15.457Z,0.40
2022-10-19T07:53:45.648Z,0.40
2022-10-19T07:56:15.297Z,0.40
2022-10-19T07:58:43.853Z,0.30
2022-10-19T08:01:14.269Z,0.40
2022-10-19T08:04:42.761Z,0.50
2022-10-19T08:06:31.085Z,0.43
2022-10-19T08:09:00.902Z,0.30
2022-10-19T08:11:31.343Z,0.32
2022-10-19T08:13:59.905Z,0.30
2022-10-19T08:16:29.869Z,0.20
2022-10-19T08:19:00.307Z,0.25
2022-10-19T08:21:28.860Z,0.35
2022-10-19T08:23:56.873Z,0.30
2022-10-19T08:26:26.725Z,0.32
2022-10-19T08:28:54.642Z,0.45
2022-10-19T08:31:23.787Z,0.30
2022-10-19T08:33:52.155Z,0.30
2022-10-19T08:36:21.408Z,0.47
2022-10-19T08:38:50.151Z,0.80
2022-10-19T08:41:28.480Z,0.47
2022-10-19T08:44:24.246Z,0.40
2022-10-19T08:47:03.392Z,0.70
2022-10-19T08:49:33.243Z,0.50
2022-10-19T08:52:05.881Z,0.40
2022-10-19T08:54:42.087Z,0.30
2022-10-19T08:57:24.481Z,0.40
2022-10-19T09:00:00.431Z,0.30
2022-10-19T09:02:41.583Z,0.30
2022-10-19T09:05:20.246Z,0.40
2022-10-19T09:07:51.596Z,0.30
2022-10-19T09:10:24.931Z,0.30
2022-10-19T09:12:58.649Z,0.30
2022-10-19T09:15:35.040Z,0.22
2022-10-19T09:18:03.413Z,0.20
2022-10-19T09:20:39.341Z,0.32
2022-10-19T09:23:21.184Z,0.30
2022-10-19T09:25:51.332Z,0.32
2022-10-19T09:28:39.683Z,0.40
2022-10-19T09:31:14.340Z,0.28
2022-10-19T09:33:45.219Z,0.22
2022-10-19T09:36:22.402Z,0.28
2022-10-19T09:38:55.773Z,0.50
2022-10-19T09:41:25.468Z,0.40
2022-10-19T09:43:55.445Z,0.40
2022-10-19T09:46:38.895Z,0.20
2022-10-19T09:49:09.550Z,0.50
2022-10-19T09:51:47.314Z,0.30
2022-10-19T09:54:27.674Z,0.20
2022-10-19T09:56:57.532Z,0.32
2022-10-19T09:59:29.729Z,0.20
2022-10-19T10:02:13.053Z,0.50
2022-10-19T10:04:40.864Z,0.40
2022-10-19T10:07:17.452Z,0.28
2022-10-19T10:09:46.267Z,0.30
2022-10-19T10:12:16.728Z,0.30
2022-10-19T10:14:45.998Z,0.20
2022-10-19T10:17:18.954Z,0.25
2022-10-19T10:20:05.431Z,0.20
2022-10-19T10:22:35.653Z,0.30
2022-10-19T10:25:13.793Z,0.20
2022-10-19T10:27:42.142Z,0.32
2022-10-19T10:30:18.034Z,0.30
2022-10-19T10:32:51.021Z,0.22
2022-10-19T10:35:22.478Z,0.45
2022-10-19T10:37:51.262Z,0.30
2022-10-19T10:40:25.523Z,0.38
2022-10-19T10:42:56.149Z,0.50
2022-10-19T10:45:27.309Z,0.40
2022-10-19T10:47:57.863Z,0.20
2022-10-19T10:50:32.964Z,0.40
2022-10-19T10:53:02.698Z,0.35
2022-10-19T10:55:31.933Z,0.40
2022-10-19T10:58:13.858Z,0.40
2022-10-19T11:00:43.196Z,0.40
2022-10-19T11:03:21.418Z,0.38
2022-10-19T11:05:54.368Z,0.40
2022-10-19T11:08:27.683Z,0.40
2022-10-19T11:11:00.976Z,0.30
2022-10-19T11:13:32.596Z,0.30
2022-10-19T11:16:04.991Z,0.38
2022-10-19T11:18:39.690Z,0.30
2022-10-19T11:21:12.871Z,0.10
2022-10-19T11:23:53.159Z,0.50
2022-10-19T11:26:59.845Z,0.30
2022-10-19T11:29:38.301Z,0.10
2022-10-19T11:32:17.073Z,0.30
2022-10-19T11:34:59.369Z,0.30
2022-10-19T11:37:31.544Z,0.30
2022-10-19T11:40:14.119Z,0.15
2022-10-19T11:42:51.862Z,0.20
2022-10-19T11:45:31.619Z,0.38
2022-10-19T11:48:15.696Z,0.32
2022-10-19T11:50:54.411Z,0.22
2022-10-19T11:53:34.136Z,0.20
2022-10-19T11:56:08.179Z,0.35
2022-10-19T11:58:51.409Z,0.20
2022-10-19T12:01:32.054Z,0.20
2022-10-19T12:04:19.247Z,0.30
2022-10-19T12:06:56.312Z,0.40
2022-10-19T12:09:35.260Z,0.40
2022-10-19T12:12:19.294Z,0.30
2022-10-19T12:14:54.044Z,0.40
2022-10-19T12:17:27.040Z,0.20
2022-10-19T12:19:57.589Z,0.10
2022-10-19T12:22:31.505Z,0.35
2022-10-19T12:25:02.527Z,0.20
2022-10-19T12:27:35.444Z,0.50
2022-10-19T12:30:08.133Z,0.30
2022-10-19T12:32:49.605Z,0.40
2022-10-19T12:35:33.895Z,0.20
2022-10-19T12:38:09.937Z,0.20
2022-10-19T12:40:44.560Z,0.40
2022-10-19T12:43:22.870Z,0.50
2022-10-19T12:45:55.740Z,0.30
2022-10-19T12:48:25.173Z,0.30
2022-10-19T12:51:17.863Z,0.30
2022-10-19T12:53:50.182Z,1.17
2022-10-19T12:56:21.832Z,0.38
2022-10-19T12:58:56.521Z,0.47
2022-10-19T13:01:29.516Z,0.10
2022-10-19T13:04:12.127Z,0.15
2022-10-19T13:06:43.786Z,0.40
2022-10-19T13:09:25.473Z,0.20
2022-10-19T13:12:28.158Z,0.28
2022-10-19T13:14:57.225Z,0.40
2022-10-19T13:17:44.071Z,0.30
2022-10-19T13:20:45.509Z,0.30
2022-10-19T13:23:42.042Z,0.20
2022-10-19T13:26:34.121Z,0.28
2022-10-19T13:29:02.524Z,0.20
2022-10-19T13:31:33.111Z,0.28
2022-10-19T13:34:01.400Z,0.40
2022-10-19T13:36:29.444Z,0.30
2022-10-19T13:39:08.713Z,0.30
2022-10-19T13:41:57.101Z,0.30
2022-10-19T13:44:31.079Z,0.20
2022-10-19T13:47:19.172Z,0.28
2022-10-19T13:50:09.347Z,0.20
2022-10-19T13:53:03.547Z,0.40
2022-10-19T13:55:57.536Z,0.50
2022-10-19T13:58:51.902Z,0.25
2022-10-19T14:01:34.113Z,0.40
2022-10-19T14:04:18.795Z,0.45
2022-10-19T14:06:53.385Z,0.40
2022-10-19T14:09:43.922Z,0.20
2022-10-19T14:12:19.943Z,0.20
2022-10-19T14:14:50.282Z,0.20
2022-10-19T14:17:21.518Z,0.35
2022-10-19T14:19:52.071Z,0.30
2022-10-19T14:22:24.436Z,0.28
2022-10-19T14:24:52.747Z,0.17
2022-10-19T14:27:24.597Z,0.30
2022-10-19T14:29:55.411Z,0.10
2022-10-19T14:32:26.203Z,0.40
2022-10-19T14:34:55.103Z,0.35
2022-10-19T14:37:25.965Z,0.75
2022-10-19T14:40:03.179Z,0.30
2022-10-19T14:42:39.971Z,0.45
2022-10-19T14:45:15.479Z,4.88
2022-10-19T14:47:58.421Z,0.55
2022-10-19T14:50:33.872Z,0.47
2022-10-19T14:53:19.324Z,0.40
2022-10-19T14:55:49.426Z,0.30
2022-10-19T14:58:22.001Z,0.40
2022-10-19T15:00:53.286Z,0.40
2022-10-19T15:03:25.714Z,0.32
2022-10-19T15:05:57.568Z,0.30
2022-10-19T15:08:34.048Z,0.50
2022-10-19T15:11:02.054Z,0.20
2022-10-19T15:13:35.169Z,0.40
2022-10-19T15:16:07.294Z,0.50
2022-10-19T15:18:55.666Z,0.40
2022-10-19T15:21:23.851Z,0.22
2022-10-19T15:23:53.571Z,0.55
2022-10-19T15:26:28.672Z,0.50
2022-10-19T15:29:09.390Z,0.60
2022-10-19T15:31:38.730Z,0.60
2022-10-19T15:34:06.704Z,2.13
2022-10-19T15:36:34.817Z,1.00
2022-10-19T15:39:18.214Z,0.70
2022-10-19T15:41:53.998Z,0.77
2022-10-19T15:44:33.220Z,0.90
2022-10-19T15:47:25.453Z,0.80
2022-10-19T15:49:56.961Z,1.23
2022-10-19T15:52:26.058Z,1.17
2022-10-19T15:54:55.699Z,0.80
2022-10-19T15:57:28.538Z,1.20
2022-10-19T15:59:58.066Z,1.20
2022-10-19T16:02:27.834Z,1.13
2022-10-19T16:04:56.496Z,0.95
2022-10-19T16:07:28.427Z,0.73
2022-10-19T16:09:56.463Z,0.50
2022-10-19T16:12:26.371Z,1.38
2022-10-19T16:14:54.690Z,0.82
2022-10-19T16:17:22.833Z,0.90
2022-10-19T16:19:52.541Z,0.60
2022-10-19T16:22:20.517Z,0.68
2022-10-19T16:24:48.493Z,0.80
2022-10-19T16:27:16.494Z,0.60
2022-10-19T16:29:45.580Z,0.60
2022-10-19T16:32:13.978Z,0.60
2022-10-19T16:34:42.184Z,0.55
2022-10-19T16:37:11.541Z,0.88
2022-10-19T16:39:39.438Z,0.73
2022-10-19T16:42:07.349Z,0.70
2022-10-19T16:44:35.277Z,0.60
2022-10-19T16:47:03.285Z,0.50
2022-10-19T16:49:31.348Z,0.93
2022-10-19T16:52:00.829Z,0.60
2022-10-19T16:54:30.841Z,0.90
2022-10-19T16:56:59.092Z,0.50
2022-10-19T16:59:27.801Z,0.40
2022-10-19T17:01:55.834Z,0.50
2022-10-19T17:04:23.718Z,0.73
2022-10-19T17:06:51.734Z,0.70
2022-10-19T17:12:10.166Z,0.80
2022-10-19T17:14:40.586Z,1.13
2022-10-19T17:17:09.021Z,0.95
2022-10-19T17:19:37.701Z,0.82
2022-10-19T17:22:05.941Z,0.77
2022-10-19T17:24:33.909Z,0.85
2022-10-19T17:27:03.965Z,0.85
2022-10-19T17:29:33.599Z,0.50
2022-10-19T17:32:01.470Z,0.98
2022-10-19T17:34:29.555Z,0.77
2022-10-19T17:37:00.394Z,0.70
2022-10-19T17:39:29.946Z,0.70
2022-10-19T17:42:02.215Z,0.60
2022-10-19T17:44:31.669Z,0.82
2022-10-19T17:47:01.591Z,1.05
2022-10-19T17:49:30.315Z,0.77
2022-10-19T17:51:58.454Z,0.85
2022-10-19T17:54:26.491Z,0.82
2022-10-19T17:56:54.529Z,1.08
2022-10-19T17:59:34.621Z,0.70
2022-10-19T18:02:11.495Z,0.80
2022-10-19T18:04:40.110Z,0.60
2022-10-19T18:07:07.957Z,0.60
2022-10-19T18:09:36.119Z,1.00
2022-10-19T18:12:04.984Z,0.77
2022-10-19T18:14:35.096Z,1.58
2022-10-19T18:17:03.321Z,1.38
2022-10-19T18:19:32.918Z,2.10
2022-10-19T18:22:00.741Z,1.92
2022-10-19T18:24:28.884Z,1.25
2022-10-19T18:26:56.744Z,1.55
2022-10-19T18:29:26.542Z,1.45
2022-10-19T18:31:55.386Z,1.42
2022-10-19T18:34:25.101Z,1.20
2022-10-19T18:36:54.983Z,1.10
2022-10-19T18:39:23.463Z,0.80
2022-10-19T18:41:54.544Z,0.93
2022-10-19T18:44:26.287Z,0.88
2022-10-19T18:46:56.094Z,0.63
2022-10-19T18:49:24.035Z,1.17
2022-10-19T18:51:55.121Z,1.15
2022-10-19T18:54:26.538Z,1.33
2022-10-19T18:56:55.126Z,1.02
2022-10-19T18:59:23.088Z,1.10
2022-10-19T19:01:51.343Z,1.40
2022-10-19T19:04:19.385Z,1.33
2022-10-19T19:06:47.182Z,1.13
2022-10-19T19:09:15.368Z,1.30
2022-10-19T19:11:44.602Z,1.40
2022-10-19T19:14:15.124Z,1.45
2022-10-19T19:16:44.434Z,1.30
2022-10-19T19:19:13.901Z,1.48
2022-10-19T19:21:44.238Z,1.40
2022-10-19T19:24:15.658Z,1.80
2022-10-19T19:26:48.353Z,1.50
2022-10-19T19:29:17.328Z,1.13
2022-10-19T19:31:45.390Z,1.30
2022-10-19T19:34:13.357Z,1.10
2022-10-19T19:36:47.292Z,1.23
2022-10-19T19:39:16.342Z,1.17
2022-10-19T19:41:46.693Z,1.17
2022-10-19T19:44:14.744Z,1.10
2022-10-19T19:46:42.678Z,1.33
2022-10-19T19:49:10.621Z,1.30
2022-10-19T19:51:38.565Z,1.13
2022-10-19T19:54:06.871Z,1.23
2022-10-19T19:56:34.917Z,1.40
2022-10-19T19:59:04.789Z,1.08
2022-10-19T20:01:33.425Z,1.27
2022-10-19T20:06:37.191Z,1.30
2022-10-19T20:09:07.156Z,1.00
2022-10-19T20:11:39.639Z,1.30
2022-10-19T20:14:10.724Z,1.37
2022-10-19T20:16:38.634Z,1.13
2022-10-19T20:19:08.994Z,1.20
2022-10-19T20:21:37.450Z,1.20
2022-10-19T20:24:05.730Z,1.20
2022-10-19T20:26:34.042Z,1.20
2022-10-19T20:29:03.916Z,1.27
2022-10-19T20:31:39.397Z,1.20
2022-10-19T20:34:13.949Z,1.10
2022-10-19T20:36:42.326Z,0.90
2022-10-19T20:39:10.874Z,1.07
2022-10-19T20:41:39.201Z,0.80
2022-10-19T20:44:07.075Z,0.90
2022-10-19T20:46:37.255Z,0.97
2022-10-19T20:49:05.681Z,0.97
2022-10-19T20:51:36.795Z,0.90
2022-10-19T20:54:07.155Z,0.70
2022-10-19T20:56:36.546Z,0.73
2022-10-19T20:59:07.625Z,0.80
2022-10-19T21:01:38.897Z,0.70
2022-10-19T21:04:09.332Z,0.70
2022-10-19T21:06:40.931Z,1.07
2022-10-19T21:09:09.988Z,1.17
2022-10-19T21:11:39.825Z,0.60
2022-10-19T21:14:11.535Z,0.50
2022-10-19T21:16:41.706Z,0.43
2022-10-19T21:19:12.473Z,0.50
2022-10-19T21:21:42.884Z,0.50
2022-10-19T21:24:12.720Z,0.60
2022-10-19T21:26:41.103Z,0.50
2022-10-19T21:29:10.609Z,0.47
2022-10-19T21:31:43.085Z,0.40
2022-10-19T21:34:15.216Z,0.70
2022-10-19T21:36:43.271Z,0.40
2022-10-19T21:39:11.145Z,0.50
2022-10-19T21:41:39.474Z,0.70
2022-10-19T21:44:07.631Z,0.50
2022-10-19T21:46:35.733Z,0.40
2022-10-19T21:49:05.242Z,0.40
2022-10-19T21:51:37.612Z,0.50
2022-10-19T21:54:07.099Z,0.60
2022-10-19T21:56:35.157Z,0.50
2022-10-19T21:59:03.017Z,0.40
2022-10-19T22:01:37.321Z,0.30
2022-10-19T22:04:12.515Z,0.50
2022-10-19T22:06:40.962Z,0.30
2022-10-19T22:09:11.240Z,0.33
2022-10-19T22:11:39.260Z,0.60
2022-10-19T22:14:07.456Z,0.40
2022-10-19T22:16:37.017Z,0.40
2022-10-19T22:19:06.078Z,0.40
2022-10-19T22:24:06.696Z,0.20
2022-10-19T22:26:37.002Z,0.40
2022-10-19T22:29:06.237Z,0.40
2022-10-19T22:31:35.448Z,0.40
2022-10-19T22:34:06.114Z,0.50
2022-10-19T22:36:35.511Z,0.60
2022-10-19T22:39:03.708Z,0.30
2022-10-19T22:41:31.679Z,0.30
2022-10-19T22:43:59.616Z,0.43
2022-10-19T22:46:27.516Z,0.37
2022-10-19T22:48:55.468Z,0.40
2022-10-19T22:51:23.563Z,0.37
2022-10-19T22:53:52.895Z,0.33
2022-10-19T22:56:21.035Z,0.40
2022-10-19T22:58:49.208Z,0.50
2022-10-19T23:01:17.797Z,0.40
2022-10-19T23:03:45.849Z,0.50
2022-10-19T23:06:16.077Z,0.50
2022-10-19T23:08:44.465Z,0.63
2022-10-19T23:11:14.512Z,0.60
2022-10-19T23:13:43.299Z,0.50
2022-10-19T23:16:11.445Z,0.60
2022-10-19T23:18:41.583Z,0.50
2022-10-19T23:21:12.803Z,0.43
2022-10-19T23:23:41.493Z,0.40
2022-10-19T23:26:12.330Z,0.53
2022-10-19T23:28:43.880Z,0.40
2022-10-19T23:31:13.953Z,0.50
2022-10-19T23:33:42.889Z,0.60
2022-10-19T23:36:14.507Z,0.50
2022-10-19T23:38:42.852Z,0.30
2022-10-19T23:41:11.021Z,0.40
2022-10-19T23:43:39.789Z,0.70
2022-10-19T23:46:09.724Z,0.50
2022-10-19T23:48:38.120Z,0.50
2022-10-19T23:51:07.925Z,0.47
2022-10-19T23:53:41.509Z,0.53
2022-10-19T23:56:12.637Z,0.50
2022-10-19T23:58:40.739Z,1.10
